Upper Deerfield Twp, New Jersey
Current Conditions -  °F | °C
As of 5:54 AM on Saturday 01 Nov 2014 (Local Time) from KMIV Reporting Station
Light Rain Light Rain  
Wind Chill: 42°   Ceiling: 1200
Heat Index: 48°   Visibility: 10mi
Dew Point: 46°   Wind: 17mph
Humidity: 93%   Direction: 10°N
Pressure: 29.71"   Gusts: 24mph
Location:  39.4433°N, 75.2554°W
Report Text: KMIV 010954Z AUTO 01015G21KT 10SM -RA OVC012 09/08 A2971 RMK AO2 SLP059 P0005 T00890078 $
Loading
Personal Weather Stations






























Interactive Weather Map
Tropical Storm Tracking
New forecast layout! Learn more

10-Day Weather Forecast

Advertisements
Track Severe Weather on mobile